sensor_id;sensor_type;location;lat;lon;timestamp;temperature;humidity
4787;DHT22;62338;48.832;9.422;2022-09-09T00:03:14;15.20;1.00
4787;DHT22;62338;48.832;9.422;2022-09-09T00:05:51;15.30;1.00
4787;DHT22;62338;48.832;9.422;2022-09-09T00:07:59;15.40;1.00
4787;DHT22;62338;48.832;9.422;2022-09-09T00:10:31;15.40;1.00
4787;DHT22;62338;48.832;9.422;2022-09-09T00:12:40;15.40;1.00
4787;DHT22;62338;48.832;9.422;2022-09-09T00:15:03;15.30;1.00
4787;DHT22;62338;48.832;9.422;2022-09-09T00:22:23;15.30;1.00
4787;DHT22;62338;48.832;9.422;2022-09-09T00:24:29;15.30;1.00
4787;DHT22;62338;48.832;9.422;2022-09-09T00:26:47;15.30;1.00
4787;DHT22;62338;48.832;9.422;2022-09-09T00:31:15;15.40;1.00
4787;DHT22;62338;48.832;9.422;2022-09-09T00:33:20;15.50;1.00
4787;DHT22;62338;48.832;9.422;2022-09-09T00:35:33;15.50;1.00
4787;DHT22;62338;48.832;9.422;2022-09-09T00:37:37;15.40;1.00
4787;DHT22;62338;48.832;9.422;2022-09-09T00:39:46;15.30;1.00
4787;DHT22;62338;48.832;9.422;2022-09-09T00:44:33;15.30;1.00
4787;DHT22;62338;48.832;9.422;2022-09-09T00:51:54;15.20;1.00
4787;DHT22;62338;48.832;9.422;2022-09-09T00:56:22;15.40;1.00
4787;DHT22;62338;48.832;9.422;2022-09-09T00:58:24;15.50;1.00
4787;DHT22;62338;48.832;9.422;2022-09-09T01:00:32;15.50;1.00
4787;DHT22;62338;48.832;9.422;2022-09-09T01:05:18;15.60;1.00
4787;DHT22;62338;48.832;9.422;2022-09-09T01:07:22;15.70;1.00
4787;DHT22;62338;48.832;9.422;2022-09-09T01:09:45;15.70;1.00
4787;DHT22;62338;48.832;9.422;2022-09-09T01:16:21;15.60;1.00
4787;DHT22;62338;48.832;9.422;2022-09-09T01:18:27;15.60;1.00
4787;DHT22;62338;48.832;9.422;2022-09-09T01:23:17;15.50;1.00
4787;DHT22;62338;48.832;9.422;2022-09-09T01:28:04;15.60;1.00
4787;DHT22;62338;48.832;9.422;2022-09-09T01:30:14;15.60;1.00
4787;DHT22;62338;48.832;9.422;2022-09-09T01:32:44;15.50;1.00
4787;DHT22;62338;48.832;9.422;2022-09-09T01:34:46;15.50;1.00
4787;DHT22;62338;48.832;9.422;2022-09-09T01:36:59;15.40;1.00
4787;DHT22;62338;48.832;9.422;2022-09-09T01:39:03;15.30;1.00
4787;DHT22;62338;48.832;9.422;2022-09-09T01:41:05;15.30;1.00
4787;DHT22;62338;48.832;9.422;2022-09-09T01:43:07;15.30;1.00
4787;DHT22;62338;48.832;9.422;2022-09-09T01:45:09;15.30;1.00
4787;DHT22;62338;48.832;9.422;2022-09-09T01:47:11;15.30;1.00
4787;DHT22;62338;48.832;9.422;2022-09-09T01:49:12;15.40;1.00
4787;DHT22;62338;48.832;9.422;2022-09-09T01:51:14;15.50;1.00
4787;DHT22;62338;48.832;9.422;2022-09-09T01:53:18;15.60;1.00
4787;DHT22;62338;48.832;9.422;2022-09-09T01:55:29;15.60;1.00
4787;DHT22;62338;48.832;9.422;2022-09-09T01:57:37;15.60;1.00
4787;DHT22;62338;48.832;9.422;2022-09-09T02:00:05;15.70;1.00
4787;DHT22;62338;48.832;9.422;2022-09-09T02:04:41;15.60;1.00
4787;DHT22;62338;48.832;9.422;2022-09-09T02:06:44;15.60;1.00
4787;DHT22;62338;48.832;9.422;2022-09-09T02:08:49;15.50;1.00
4787;DHT22;62338;48.832;9.422;2022-09-09T02:13:15;15.30;1.00
4787;DHT22;62338;48.832;9.422;2022-09-09T02:15:30;15.30;1.00
4787;DHT22;62338;48.832;9.422;2022-09-09T02:17:36;15.30;1.00
4787;DHT22;62338;48.832;9.422;2022-09-09T02:19:45;15.20;1.00
4787;DHT22;62338;48.832;9.422;2022-09-09T02:21:50;15.20;1.00
4787;DHT22;62338;48.832;9.422;2022-09-09T02:23:54;15.10;1.00
4787;DHT22;62338;48.832;9.422;2022-09-09T02:25:58;15.00;1.00
4787;DHT22;62338;48.832;9.422;2022-09-09T02:28:01;14.90;1.00
4787;DHT22;62338;48.832;9.422;2022-09-09T02:30:05;14.90;1.00
4787;DHT22;62338;48.832;9.422;2022-09-09T02:32:21;14.80;5.50
4787;DHT22;62338;48.832;9.422;2022-09-09T02:34:24;14.80;3.00
4787;DHT22;62338;48.832;9.422;2022-09-09T02:36:29;14.70;10.70
4787;DHT22;62338;48.832;9.422;2022-09-09T02:38:36;14.60;16.70
4787;DHT22;62338;48.832;9.422;2022-09-09T02:40:39;14.50;25.50
4787;DHT22;62338;48.832;9.422;2022-09-09T02:42:43;14.40;36.40
4787;DHT22;62338;48.832;9.422;2022-09-09T02:44:45;14.30;44.20
4787;DHT22;62338;48.832;9.422;2022-09-09T02:49:16;14.20;52.50
4787;DHT22;62338;48.832;9.422;2022-09-09T02:51:35;14.20;55.00
4787;DHT22;62338;48.832;9.422;2022-09-09T02:54:01;14.10;66.50
4787;DHT22;62338;48.832;9.422;2022-09-09T02:56:11;14.20;63.60
4787;DHT22;62338;48.832;9.422;2022-09-09T02:58:18;14.30;54.70
4787;DHT22;62338;48.832;9.422;2022-09-09T03:00:25;14.40;55.00
4787;DHT22;62338;48.832;9.422;2022-09-09T03:02:28;14.40;54.80
4787;DHT22;62338;48.832;9.422;2022-09-09T03:04:30;14.30;57.90
4787;DHT22;62338;48.832;9.422;2022-09-09T03:06:32;14.20;66.10
4787;DHT22;62338;48.832;9.422;2022-09-09T03:08:34;14.10;76.70
4787;DHT22;62338;48.832;9.422;2022-09-09T03:10:36;14.00;87.00
4787;DHT22;62338;48.832;9.422;2022-09-09T03:12:38;13.90;92.40
4787;DHT22;62338;48.832;9.422;2022-09-09T03:14:40;13.80;96.20
4787;DHT22;62338;48.832;9.422;2022-09-09T03:16:42;13.70;99.60
4787;DHT22;62338;48.832;9.422;2022-09-09T03:18:44;13.60;99.90
4787;DHT22;62338;48.832;9.422;2022-09-09T03:20:47;13.50;99.90
4787;DHT22;62338;48.832;9.422;2022-09-09T03:22:53;13.50;99.90
4787;DHT22;62338;48.832;9.422;2022-09-09T03:24:54;13.40;99.90
4787;DHT22;62338;48.832;9.422;2022-09-09T03:26:56;13.40;99.90
4787;DHT22;62338;48.832;9.422;2022-09-09T03:28:58;13.40;99.90
4787;DHT22;62338;48.832;9.422;2022-09-09T03:31:04;13.50;99.90
4787;DHT22;62338;48.832;9.422;2022-09-09T03:33:06;13.50;99.90
4787;DHT22;62338;48.832;9.422;2022-09-09T03:35:08;13.50;99.90
4787;DHT22;62338;48.832;9.422;2022-09-09T03:37:10;13.60;99.90
4787;DHT22;62338;48.832;9.422;2022-09-09T03:39:12;13.70;99.90
4787;DHT22;62338;48.832;9.422;2022-09-09T03:41:13;13.80;99.90
4787;DHT22;62338;48.832;9.422;2022-09-09T03:43:15;13.90;99.60
4787;DHT22;62338;48.832;9.422;2022-09-09T03:45:18;13.90;99.90
4787;DHT22;62338;48.832;9.422;2022-09-09T03:47:20;14.00;95.40
4787;DHT22;62338;48.832;9.422;2022-09-09T03:49:23;14.00;90.90
4787;DHT22;62338;48.832;9.422;2022-09-09T03:51:25;14.10;90.70
4787;DHT22;62338;48.832;9.422;2022-09-09T03:53:27;14.20;82.50
4787;DHT22;62338;48.832;9.422;2022-09-09T03:55:29;14.30;84.10
4787;DHT22;62338;48.832;9.422;2022-09-09T03:57:31;14.30;74.50
4787;DHT22;62338;48.832;9.422;2022-09-09T03:59:36;14.40;70.30
4787;DHT22;62338;48.832;9.422;2022-09-09T04:01:38;14.40;72.10
4787;DHT22;62338;48.832;9.422;2022-09-09T04:03:41;14.50;70.30
4787;DHT22;62338;48.832;9.422;2022-09-09T04:05:43;14.50;74.70
4787;DHT22;62338;48.832;9.422;2022-09-09T04:07:45;14.50;71.80
4787;DHT22;62338;48.832;9.422;2022-09-09T04:09:47;14.50;67.30
4787;DHT22;62338;48.832;9.422;2022-09-09T04:11:48;14.50;67.60
4787;DHT22;62338;48.832;9.422;2022-09-09T04:13:50;14.50;73.90
4787;DHT22;62338;48.832;9.422;2022-09-09T04:15:57;14.50;68.00
4787;DHT22;62338;48.832;9.422;2022-09-09T04:18:00;14.40;66.80
4787;DHT22;62338;48.832;9.422;2022-09-09T04:20:03;14.50;61.50
4787;DHT22;62338;48.832;9.422;2022-09-09T04:22:05;14.40;74.80
4787;DHT22;62338;48.832;9.422;2022-09-09T04:24:09;14.40;74.40
4787;DHT22;62338;48.832;9.422;2022-09-09T04:26:11;14.40;71.50
4787;DHT22;62338;48.832;9.422;2022-09-09T04:28:14;14.40;73.30
4787;DHT22;62338;48.832;9.422;2022-09-09T04:30:15;14.50;66.80
4787;DHT22;62338;48.832;9.422;2022-09-09T04:32:17;14.40;79.30
4787;DHT22;62338;48.832;9.422;2022-09-09T04:34:19;14.40;82.20
4787;DHT22;62338;48.832;9.422;2022-09-09T04:36:21;14.30;86.80
4787;DHT22;62338;48.832;9.422;2022-09-09T04:38:23;14.30;87.70
4787;DHT22;62338;48.832;9.422;2022-09-09T04:40:25;14.20;90.60
4787;DHT22;62338;48.832;9.422;2022-09-09T04:42:27;14.10;94.60
4787;DHT22;62338;48.832;9.422;2022-09-09T04:44:29;14.00;99.90
4787;DHT22;62338;48.832;9.422;2022-09-09T04:46:31;13.90;99.90
4787;DHT22;62338;48.832;9.422;2022-09-09T04:48:34;13.80;99.90
4787;DHT22;62338;48.832;9.422;2022-09-09T04:50:36;13.80;99.90
4787;DHT22;62338;48.832;9.422;2022-09-09T04:52:38;13.70;99.90
4787;DHT22;62338;48.832;9.422;2022-09-09T04:54:39;13.70;99.90
4787;DHT22;62338;48.832;9.422;2022-09-09T04:56:41;13.70;99.90
4787;DHT22;62338;48.832;9.422;2022-09-09T04:58:44;13.70;99.90
4787;DHT22;62338;48.832;9.422;2022-09-09T05:00:47;13.80;99.90
4787;DHT22;62338;48.832;9.422;2022-09-09T05:02:48;13.70;99.90
4787;DHT22;62338;48.832;9.422;2022-09-09T05:04:50;13.70;99.90
4787;DHT22;62338;48.832;9.422;2022-09-09T05:06:52;13.70;99.90
4787;DHT22;62338;48.832;9.422;2022-09-09T05:08:54;13.80;99.90
4787;DHT22;62338;48.832;9.422;2022-09-09T05:10:55;13.90;99.90
4787;DHT22;62338;48.832;9.422;2022-09-09T05:12:57;13.90;99.90
4787;DHT22;62338;48.832;9.422;2022-09-09T05:14:59;13.90;99.90
4787;DHT22;62338;48.832;9.422;2022-09-09T05:17:00;14.00;99.90
4787;DHT22;62338;48.832;9.422;2022-09-09T05:19:02;14.00;99.90
4787;DHT22;62338;48.832;9.422;2022-09-09T05:21:04;14.00;99.90
4787;DHT22;62338;48.832;9.422;2022-09-09T05:23:08;14.00;99.90
4787;DHT22;62338;48.832;9.422;2022-09-09T05:25:11;14.00;99.90
4787;DHT22;62338;48.832;9.422;2022-09-09T05:27:12;14.10;99.90
4787;DHT22;62338;48.832;9.422;2022-09-09T05:29:14;14.10;99.90
4787;DHT22;62338;48.832;9.422;2022-09-09T05:31:17;14.10;99.90
4787;DHT22;62338;48.832;9.422;2022-09-09T05:33:19;14.10;99.90
4787;DHT22;62338;48.832;9.422;2022-09-09T05:35:22;14.20;99.90
4787;DHT22;62338;48.832;9.422;2022-09-09T05:37:24;14.20;99.90
4787;DHT22;62338;48.832;9.422;2022-09-09T05:39:26;14.30;99.90
4787;DHT22;62338;48.832;9.422;2022-09-09T05:41:28;14.40;99.90
4787;DHT22;62338;48.832;9.422;2022-09-09T05:43:30;14.40;99.90
4787;DHT22;62338;48.832;9.422;2022-09-09T05:45:33;14.50;99.90
4787;DHT22;62338;48.832;9.422;2022-09-09T05:47:36;14.60;99.90
4787;DHT22;62338;48.832;9.422;2022-09-09T05:49:38;14.70;99.90
4787;DHT22;62338;48.832;9.422;2022-09-09T05:51:40;14.70;99.90
4787;DHT22;62338;48.832;9.422;2022-09-09T05:53:45;14.80;99.90
4787;DHT22;62338;48.832;9.422;2022-09-09T05:55:47;14.80;99.60
4787;DHT22;62338;48.832;9.422;2022-09-09T05:57:49;14.90;98.10
4787;DHT22;62338;48.832;9.422;2022-09-09T05:59:53;14.90;96.40
4787;DHT22;62338;48.832;9.422;2022-09-09T06:01:55;14.80;99.90
4787;DHT22;62338;48.832;9.422;2022-09-09T06:03:57;14.80;99.90
4787;DHT22;62338;48.832;9.422;2022-09-09T06:06:13;14.80;99.40
4787;DHT22;62338;48.832;9.422;2022-09-09T06:08:15;14.70;99.90
4787;DHT22;62338;48.832;9.422;2022-09-09T06:10:18;14.80;99.90
4787;DHT22;62338;48.832;9.422;2022-09-09T06:12:20;14.80;99.90
4787;DHT22;62338;48.832;9.422;2022-09-09T06:14:22;14.90;99.90
4787;DHT22;62338;48.832;9.422;2022-09-09T06:16:26;14.90;99.90
4787;DHT22;62338;48.832;9.422;2022-09-09T06:18:29;14.90;99.90
4787;DHT22;62338;48.832;9.422;2022-09-09T06:20:31;15.00;99.90
4787;DHT22;62338;48.832;9.422;2022-09-09T06:22:33;15.00;99.90
4787;DHT22;62338;48.832;9.422;2022-09-09T06:24:35;15.00;99.90
4787;DHT22;62338;48.832;9.422;2022-09-09T06:26:38;15.10;99.90
4787;DHT22;62338;48.832;9.422;2022-09-09T06:28:44;15.10;99.90
4787;DHT22;62338;48.832;9.422;2022-09-09T06:30:46;15.10;99.90
4787;DHT22;62338;48.832;9.422;2022-09-09T06:32:48;15.20;99.90
4787;DHT22;62338;48.832;9.422;2022-09-09T06:34:51;15.30;99.90
4787;DHT22;62338;48.832;9.422;2022-09-09T06:36:53;15.40;99.90
4787;DHT22;62338;48.832;9.422;2022-09-09T06:38:55;15.50;98.90
4787;DHT22;62338;48.832;9.422;2022-09-09T06:40:58;15.50;99.90
4787;DHT22;62338;48.832;9.422;2022-09-09T06:43:00;15.60;99.90
4787;DHT22;62338;48.832;9.422;2022-09-09T06:45:02;15.70;99.90
4787;DHT22;62338;48.832;9.422;2022-09-09T06:47:04;15.70;99.90
4787;DHT22;62338;48.832;9.422;2022-09-09T06:49:08;15.90;91.60
4787;DHT22;62338;48.832;9.422;2022-09-09T06:51:16;16.10;97.40
4787;DHT22;62338;48.832;9.422;2022-09-09T06:53:18;16.40;57.70
4787;DHT22;62338;48.832;9.422;2022-09-09T06:55:20;17.00;42.00
4787;DHT22;62338;48.832;9.422;2022-09-09T06:57:22;18.00;13.30
4787;DHT22;62338;48.832;9.422;2022-09-09T06:59:39;18.30;1.00
4787;DHT22;62338;48.832;9.422;2022-09-09T07:01:42;18.30;1.00
4787;DHT22;62338;48.832;9.422;2022-09-09T07:03:54;18.10;1.00
4787;DHT22;62338;48.832;9.422;2022-09-09T07:05:57;17.80;1.00
4787;DHT22;62338;48.832;9.422;2022-09-09T07:07:58;17.70;1.00
4787;DHT22;62338;48.832;9.422;2022-09-09T07:10:00;17.70;1.00
4787;DHT22;62338;48.832;9.422;2022-09-09T07:12:02;17.80;1.00
4787;DHT22;62338;48.832;9.422;2022-09-09T07:14:05;17.70;1.00
4787;DHT22;62338;48.832;9.422;2022-09-09T07:16:12;17.90;1.00
4787;DHT22;62338;48.832;9.422;2022-09-09T07:18:14;18.00;1.00
4787;DHT22;62338;48.832;9.422;2022-09-09T07:20:16;18.20;1.00
4787;DHT22;62338;48.832;9.422;2022-09-09T07:22:17;18.40;1.00
4787;DHT22;62338;48.832;9.422;2022-09-09T07:24:21;18.60;1.00
4787;DHT22;62338;48.832;9.422;2022-09-09T07:26:25;18.60;1.00
4787;DHT22;62338;48.832;9.422;2022-09-09T07:28:27;18.60;1.00
4787;DHT22;62338;48.832;9.422;2022-09-09T07:30:30;18.60;1.00
4787;DHT22;62338;48.832;9.422;2022-09-09T07:32:32;18.70;1.00
4787;DHT22;62338;48.832;9.422;2022-09-09T07:34:34;18.80;1.00
4787;DHT22;62338;48.832;9.422;2022-09-09T07:36:38;18.70;1.00
4787;DHT22;62338;48.832;9.422;2022-09-09T07:38:45;18.80;1.00
4787;DHT22;62338;48.832;9.422;2022-09-09T07:40:47;18.90;1.00
4787;DHT22;62338;48.832;9.422;2022-09-09T07:42:49;19.00;1.00
4787;DHT22;62338;48.832;9.422;2022-09-09T07:44:50;19.00;1.00
4787;DHT22;62338;48.832;9.422;2022-09-09T07:46:56;18.80;1.00
4787;DHT22;62338;48.832;9.422;2022-09-09T07:48:58;18.80;1.00
4787;DHT22;62338;48.832;9.422;2022-09-09T07:51:05;19.00;1.00
4787;DHT22;62338;48.832;9.422;2022-09-09T07:53:07;19.30;1.00
4787;DHT22;62338;48.832;9.422;2022-09-09T07:55:09;20.00;1.00
4787;DHT22;62338;48.832;9.422;2022-09-09T07:57:11;21.00;1.00
4787;DHT22;62338;48.832;9.422;2022-09-09T07:59:14;21.30;1.00
4787;DHT22;62338;48.832;9.422;2022-09-09T08:01:18;20.70;99.90
4787;DHT22;62338;48.832;9.422;2022-09-09T08:03:20;20.40;99.90
4787;DHT22;62338;48.832;9.422;2022-09-09T08:05:23;21.00;1.00
4787;DHT22;62338;48.832;9.422;2022-09-09T08:07:25;22.00;99.90
4787;DHT22;62338;48.832;9.422;2022-09-09T08:09:27;22.70;1.00
4787;DHT22;62338;48.832;9.422;2022-09-09T08:11:34;22.80;99.90
4787;DHT22;62338;48.832;9.422;2022-09-09T08:13:41;22.50;99.90
4787;DHT22;62338;48.832;9.422;2022-09-09T08:15:43;21.80;1.00
4787;DHT22;62338;48.832;9.422;2022-09-09T08:17:46;21.90;1.00
4787;DHT22;62338;48.832;9.422;2022-09-09T08:19:47;22.80;99.90
4787;DHT22;62338;48.832;9.422;2022-09-09T08:21:49;23.90;1.00
4787;DHT22;62338;48.832;9.422;2022-09-09T08:23:52;24.60;99.90
4787;DHT22;62338;48.832;9.422;2022-09-09T08:26:17;25.00;10.30
4787;DHT22;62338;48.832;9.422;2022-09-09T08:28:22;25.60;1.00
4787;DHT22;62338;48.832;9.422;2022-09-09T08:30:24;26.20;1.00
4787;DHT22;62338;48.832;9.422;2022-09-09T08:32:26;26.80;99.90
4787;DHT22;62338;48.832;9.422;2022-09-09T08:34:27;26.80;99.90
4787;DHT22;62338;48.832;9.422;2022-09-09T08:36:32;26.70;99.90
4787;DHT22;62338;48.832;9.422;2022-09-09T08:38:35;26.40;99.90
4787;DHT22;62338;48.832;9.422;2022-09-09T08:40:42;26.10;99.90
4787;DHT22;62338;48.832;9.422;2022-09-09T08:42:48;25.00;99.90
4787;DHT22;62338;48.832;9.422;2022-09-09T08:45:24;25.10;1.00
4787;DHT22;62338;48.832;9.422;2022-09-09T08:51:56;26.80;99.90
4787;DHT22;62338;48.832;9.422;2022-09-09T08:54:00;26.80;99.90
4787;DHT22;62338;48.832;9.422;2022-09-09T08:56:09;26.60;99.90
4787;DHT22;62338;48.832;9.422;2022-09-09T08:58:18;26.60;99.90
4787;DHT22;62338;48.832;9.422;2022-09-09T09:00:20;27.10;99.90
4787;DHT22;62338;48.832;9.422;2022-09-09T09:02:49;26.60;1.00
4787;DHT22;62338;48.832;9.422;2022-09-09T09:11:55;23.60;99.90
4787;DHT22;62338;48.832;9.422;2022-09-09T09:14:23;23.10;1.00
4787;DHT22;62338;48.832;9.422;2022-09-09T09:16:48;22.90;1.00
4787;DHT22;62338;48.832;9.422;2022-09-09T09:18:52;23.50;99.90
4787;DHT22;62338;48.832;9.422;2022-09-09T09:23:05;25.10;1.00
4787;DHT22;62338;48.832;9.422;2022-09-09T09:27:15;25.30;1.00
4787;DHT22;62338;48.832;9.422;2022-09-09T09:29:19;25.40;1.00
4787;DHT22;62338;48.832;9.422;2022-09-09T09:31:21;25.70;1.00
4787;DHT22;62338;48.832;9.422;2022-09-09T09:33:30;26.40;99.90
4787;DHT22;62338;48.832;9.422;2022-09-09T09:35:34;26.20;99.90
4787;DHT22;62338;48.832;9.422;2022-09-09T09:37:43;26.10;1.00
4787;DHT22;62338;48.832;9.422;2022-09-09T09:40:16;26.20;99.90
4787;DHT22;62338;48.832;9.422;2022-09-09T09:42:19;26.20;99.90
4787;DHT22;62338;48.832;9.422;2022-09-09T09:44:31;25.50;99.90
4787;DHT22;62338;48.832;9.422;2022-09-09T09:46:33;24.20;1.00
4787;DHT22;62338;48.832;9.422;2022-09-09T09:48:35;23.00;99.90
4787;DHT22;62338;48.832;9.422;2022-09-09T09:50:59;21.70;1.00
4787;DHT22;62338;48.832;9.422;2022-09-09T09:53:17;20.20;1.00
4787;DHT22;62338;48.832;9.422;2022-09-09T09:55:21;19.20;1.00
4787;DHT22;62338;48.832;9.422;2022-09-09T09:57:29;18.40;1.00
4787;DHT22;62338;48.832;9.422;2022-09-09T09:59:36;17.80;1.00
4787;DHT22;62338;48.832;9.422;2022-09-09T10:01:41;17.50;1.00
4787;DHT22;62338;48.832;9.422;2022-09-09T10:03:51;18.10;1.00
4787;DHT22;62338;48.832;9.422;2022-09-09T10:05:54;19.30;1.00
4787;DHT22;62338;48.832;9.422;2022-09-09T10:08:24;20.50;1.00
4787;DHT22;62338;48.832;9.422;2022-09-09T10:10:57;21.70;1.00
4787;DHT22;62338;48.832;9.422;2022-09-09T10:13:14;22.30;1.00
4787;DHT22;62338;48.832;9.422;2022-09-09T10:22:28;25.20;1.00
4787;DHT22;62338;48.832;9.422;2022-09-09T10:24:36;25.80;99.90
4787;DHT22;62338;48.832;9.422;2022-09-09T10:26:58;26.20;99.90
4787;DHT22;62338;48.832;9.422;2022-09-09T10:36:32;26.00;70.80
4787;DHT22;62338;48.832;9.422;2022-09-09T10:38:58;25.90;75.10
4787;DHT22;62338;48.832;9.422;2022-09-09T10:50:54;25.90;69.90
4787;DHT22;62338;48.832;9.422;2022-09-09T10:55:42;25.40;75.50
4787;DHT22;62338;48.832;9.422;2022-09-09T10:57:47;26.20;72.30
4787;DHT22;62338;48.832;9.422;2022-09-09T10:59:53;26.80;71.30
4787;DHT22;62338;48.832;9.422;2022-09-09T11:02:26;26.50;68.70
4787;DHT22;62338;48.832;9.422;2022-09-09T11:04:34;26.30;68.00
4787;DHT22;62338;48.832;9.422;2022-09-09T11:06:41;26.70;68.90
4787;DHT22;62338;48.832;9.422;2022-09-09T11:08:46;27.00;67.60
4787;DHT22;62338;48.832;9.422;2022-09-09T11:11:03;26.90;66.00
4787;DHT22;62338;48.832;9.422;2022-09-09T11:13:19;26.70;67.10
4787;DHT22;62338;48.832;9.422;2022-09-09T11:15:30;26.50;71.00
4787;DHT22;62338;48.832;9.422;2022-09-09T11:17:48;25.80;68.30
4787;DHT22;62338;48.832;9.422;2022-09-09T11:19:50;25.00;73.10
4787;DHT22;62338;48.832;9.422;2022-09-09T11:21:53;24.30;73.10
4787;DHT22;62338;48.832;9.422;2022-09-09T11:24:00;23.30;75.80
4787;DHT22;62338;48.832;9.422;2022-09-09T11:26:03;22.70;1.00
4787;DHT22;62338;48.832;9.422;2022-09-09T11:28:21;22.20;99.90
4787;DHT22;62338;48.832;9.422;2022-09-09T11:40:24;22.90;99.90
4787;DHT22;62338;48.832;9.422;2022-09-09T11:42:29;22.80;1.00
4787;DHT22;62338;48.832;9.422;2022-09-09T11:44:31;22.70;1.00
4787;DHT22;62338;48.832;9.422;2022-09-09T11:46:36;22.40;1.00
4787;DHT22;62338;48.832;9.422;2022-09-09T11:48:42;21.70;78.60
4787;DHT22;62338;48.832;9.422;2022-09-09T11:51:01;20.90;99.90
4787;DHT22;62338;48.832;9.422;2022-09-09T11:53:17;20.10;99.90
4787;DHT22;62338;48.832;9.422;2022-09-09T11:57:35;18.60;99.90
4787;DHT22;62338;48.832;9.422;2022-09-09T11:59:37;18.10;1.00
4787;DHT22;62338;48.832;9.422;2022-09-09T12:01:41;17.50;1.00
4787;DHT22;62338;48.832;9.422;2022-09-09T12:03:48;16.70;99.90
4787;DHT22;62338;48.832;9.422;2022-09-09T12:05:51;16.00;99.90
4787;DHT22;62338;48.832;9.422;2022-09-09T12:07:56;15.60;99.90
4787;DHT22;62338;48.832;9.422;2022-09-09T12:10:19;15.60;99.90
4787;DHT22;62338;48.832;9.422;2022-09-09T12:12:28;15.60;99.90
4787;DHT22;62338;48.832;9.422;2022-09-09T12:16:43;16.90;99.90
4787;DHT22;62338;48.832;9.422;2022-09-09T12:18:45;17.40;99.90
4787;DHT22;62338;48.832;9.422;2022-09-09T12:21:21;17.70;99.90
4787;DHT22;62338;48.832;9.422;2022-09-09T12:23:32;18.10;99.90
4787;DHT22;62338;48.832;9.422;2022-09-09T12:25:48;18.40;99.90
4787;DHT22;62338;48.832;9.422;2022-09-09T12:28:16;18.90;80.60
4787;DHT22;62338;48.832;9.422;2022-09-09T12:30:19;19.30;84.60
4787;DHT22;62338;48.832;9.422;2022-09-09T12:32:26;20.10;14.00
4787;DHT22;62338;48.832;9.422;2022-09-09T12:37:19;21.70;1.00
4787;DHT22;62338;48.832;9.422;2022-09-09T12:39:29;22.30;1.00
4787;DHT22;62338;48.832;9.422;2022-09-09T12:41:33;22.20;1.00
4787;DHT22;62338;48.832;9.422;2022-09-09T12:43:35;22.00;1.00
4787;DHT22;62338;48.832;9.422;2022-09-09T12:45:40;21.80;1.00
4787;DHT22;62338;48.832;9.422;2022-09-09T12:47:58;22.10;1.00
4787;DHT22;62338;48.832;9.422;2022-09-09T12:50:02;21.70;99.90
4787;DHT22;62338;48.832;9.422;2022-09-09T12:52:07;21.40;1.00
4787;DHT22;62338;48.832;9.422;2022-09-09T12:54:14;21.40;1.00
4787;DHT22;62338;48.832;9.422;2022-09-09T12:56:22;21.60;1.00
4787;DHT22;62338;48.832;9.422;2022-09-09T12:58:25;21.50;1.00
4787;DHT22;62338;48.832;9.422;2022-09-09T13:00:30;21.10;1.00
4787;DHT22;62338;48.832;9.422;2022-09-09T13:02:32;20.70;99.90
4787;DHT22;62338;48.832;9.422;2022-09-09T13:04:34;20.20;1.00
4787;DHT22;62338;48.832;9.422;2022-09-09T13:06:36;19.90;99.90
4787;DHT22;62338;48.832;9.422;2022-09-09T13:08:38;19.80;99.90
4787;DHT22;62338;48.832;9.422;2022-09-09T13:10:41;19.70;99.90
4787;DHT22;62338;48.832;9.422;2022-09-09T13:12:58;19.50;99.90
4787;DHT22;62338;48.832;9.422;2022-09-09T13:14:59;19.40;1.00
4787;DHT22;62338;48.832;9.422;2022-09-09T13:17:03;19.30;1.00
4787;DHT22;62338;48.832;9.422;2022-09-09T13:19:15;19.10;99.90
4787;DHT22;62338;48.832;9.422;2022-09-09T13:21:18;19.00;1.00
4787;DHT22;62338;48.832;9.422;2022-09-09T13:23:21;19.00;99.90
4787;DHT22;62338;48.832;9.422;2022-09-09T13:25:28;19.00;1.00
4787;DHT22;62338;48.832;9.422;2022-09-09T13:27:32;18.90;1.00
4787;DHT22;62338;48.832;9.422;2022-09-09T13:29:35;18.90;99.90
4787;DHT22;62338;48.832;9.422;2022-09-09T13:31:38;18.80;99.90
4787;DHT22;62338;48.832;9.422;2022-09-09T13:33:40;18.80;1.00
4787;DHT22;62338;48.832;9.422;2022-09-09T13:36:00;18.80;99.90
4787;DHT22;62338;48.832;9.422;2022-09-09T13:38:08;18.80;1.00
4787;DHT22;62338;48.832;9.422;2022-09-09T13:40:19;18.80;1.00
4787;DHT22;62338;48.832;9.422;2022-09-09T13:42:29;18.70;1.00
4787;DHT22;62338;48.832;9.422;2022-09-09T13:44:38;18.60;99.90
4787;DHT22;62338;48.832;9.422;2022-09-09T13:46:43;18.80;99.90
4787;DHT22;62338;48.832;9.422;2022-09-09T13:48:57;18.90;99.90
4787;DHT22;62338;48.832;9.422;2022-09-09T13:51:04;19.00;99.90
4787;DHT22;62338;48.832;9.422;2022-09-09T13:53:08;19.30;1.00
4787;DHT22;62338;48.832;9.422;2022-09-09T13:55:10;19.50;99.90
4787;DHT22;62338;48.832;9.422;2022-09-09T13:57:17;19.70;99.90
4787;DHT22;62338;48.832;9.422;2022-09-09T13:59:19;19.90;1.00
4787;DHT22;62338;48.832;9.422;2022-09-09T14:01:21;20.10;24.40
4787;DHT22;62338;48.832;9.422;2022-09-09T14:03:29;20.50;1.00
4787;DHT22;62338;48.832;9.422;2022-09-09T14:05:32;21.00;99.90
4787;DHT22;62338;48.832;9.422;2022-09-09T14:07:35;21.50;1.00
4787;DHT22;62338;48.832;9.422;2022-09-09T14:09:36;22.40;1.00
4787;DHT22;62338;48.832;9.422;2022-09-09T14:11:38;22.40;1.00
4787;DHT22;62338;48.832;9.422;2022-09-09T14:13:40;22.00;99.90
4787;DHT22;62338;48.832;9.422;2022-09-09T14:15:42;21.70;99.90
4787;DHT22;62338;48.832;9.422;2022-09-09T14:17:43;21.50;99.90
4787;DHT22;62338;48.832;9.422;2022-09-09T14:19:45;21.40;99.90
4787;DHT22;62338;48.832;9.422;2022-09-09T14:21:47;21.40;99.90
4787;DHT22;62338;48.832;9.422;2022-09-09T14:23:49;21.50;1.00
4787;DHT22;62338;48.832;9.422;2022-09-09T14:25:51;21.50;99.90
4787;DHT22;62338;48.832;9.422;2022-09-09T14:27:52;21.40;99.90
4787;DHT22;62338;48.832;9.422;2022-09-09T14:29:54;21.40;15.00
4787;DHT22;62338;48.832;9.422;2022-09-09T14:31:56;21.40;1.00
4787;DHT22;62338;48.832;9.422;2022-09-09T14:33:58;21.30;99.90
4787;DHT22;62338;48.832;9.422;2022-09-09T14:36:02;21.30;23.80
4787;DHT22;62338;48.832;9.422;2022-09-09T14:38:04;21.40;99.90
4787;DHT22;62338;48.832;9.422;2022-09-09T14:40:06;21.40;99.90
4787;DHT22;62338;48.832;9.422;2022-09-09T14:42:09;21.60;1.00
4787;DHT22;62338;48.832;9.422;2022-09-09T14:44:12;21.80;29.40
4787;DHT22;62338;48.832;9.422;2022-09-09T14:46:16;21.50;99.90
4787;DHT22;62338;48.832;9.422;2022-09-09T14:48:18;21.30;99.90
4787;DHT22;62338;48.832;9.422;2022-09-09T14:50:21;21.00;99.90
4787;DHT22;62338;48.832;9.422;2022-09-09T14:52:23;20.90;1.00
4787;DHT22;62338;48.832;9.422;2022-09-09T14:54:25;20.90;1.00
4787;DHT22;62338;48.832;9.422;2022-09-09T14:56:28;21.20;99.90
4787;DHT22;62338;48.832;9.422;2022-09-09T14:58:31;21.30;1.00
4787;DHT22;62338;48.832;9.422;2022-09-09T15:00:33;21.30;21.90
4787;DHT22;62338;48.832;9.422;2022-09-09T15:02:34;21.60;68.60
4787;DHT22;62338;48.832;9.422;2022-09-09T15:04:36;22.00;1.00
4787;DHT22;62338;48.832;9.422;2022-09-09T15:06:38;22.40;82.70
4787;DHT22;62338;48.832;9.422;2022-09-09T15:08:42;22.60;80.60
4787;DHT22;62338;48.832;9.422;2022-09-09T15:10:44;22.80;84.30
4787;DHT22;62338;48.832;9.422;2022-09-09T15:12:46;22.80;85.80